sensor_id;sensor_type;location;lat;lon;timestamp;pressure;altitude;pressure_sealevel;temperature;humidity
29163;BME280;20331;53.144;8.208;2023-02-20T00:07:08;102350.09;;;7.17;83.88
29163;BME280;20331;53.144;8.208;2023-02-20T00:17:30;102315.81;;;7.21;83.93
29163;BME280;20331;53.144;8.208;2023-02-20T00:27:51;102312.34;;;7.19;84.27
29163;BME280;20331;53.144;8.208;2023-02-20T00:38:12;102302.88;;;7.14;84.66
29163;BME280;20331;53.144;8.208;2023-02-20T00:48:34;102288.31;;;7.17;85.12
29163;BME280;20331;53.144;8.208;2023-02-20T00:58:55;102249.75;;;7.20;85.61
29163;BME280;20331;53.144;8.208;2023-02-20T01:09:17;102248.06;;;7.23;85.38
29163;BME280;20331;53.144;8.208;2023-02-20T01:19:38;102215.47;;;7.25;84.60
29163;BME280;20331;53.144;8.208;2023-02-20T01:29:59;102179.44;;;7.25;85.04
29163;BME280;20331;53.144;8.208;2023-02-20T01:40:21;102170.88;;;7.35;84.86
29163;BME280;20331;53.144;8.208;2023-02-20T01:50:43;102180.31;;;7.32;85.37
29163;BME280;20331;53.144;8.208;2023-02-20T02:01:05;102163.19;;;7.43;84.23
29163;BME280;20331;53.144;8.208;2023-02-20T02:11:26;102135.69;;;7.42;85.00
29163;BME280;20331;53.144;8.208;2023-02-20T02:43:12;102037.88;;;7.49;84.80
29163;BME280;20331;53.144;8.208;2023-02-20T02:53:35;102034.47;;;7.52;84.92
29163;BME280;20331;53.144;8.208;2023-02-20T03:03:56;102015.59;;;7.65;84.17
29163;BME280;20331;53.144;8.208;2023-02-20T03:14:25;101974.38;;;7.65;83.81
29163;BME280;20331;53.144;8.208;2023-02-20T03:25:27;101963.22;;;7.73;84.25
29163;BME280;20331;53.144;8.208;2023-02-20T03:35:49;101949.47;;;7.77;84.06
29163;BME280;20331;53.144;8.208;2023-02-20T03:46:31;101924.56;;;7.87;84.15
29163;BME280;20331;53.144;8.208;2023-02-20T03:56:55;101928.84;;;7.88;84.24
29163;BME280;20331;53.144;8.208;2023-02-20T04:07:24;101932.28;;;7.91;84.42
29163;BME280;20331;53.144;8.208;2023-02-20T04:17:51;101949.47;;;7.92;84.77
29163;BME280;20331;53.144;8.208;2023-02-20T04:28:15;101937.41;;;8.08;84.11
29163;BME280;20331;53.144;8.208;2023-02-20T04:38:37;101957.19;;;8.00;84.74
29163;BME280;20331;53.144;8.208;2023-02-20T04:48:58;101915.94;;;7.97;85.50
29163;BME280;20331;53.144;8.208;2023-02-20T04:59:20;101917.69;;;7.98;85.46
29163;BME280;20331;53.144;8.208;2023-02-20T05:09:42;101922.81;;;8.01;85.89
29163;BME280;20331;53.144;8.208;2023-02-20T05:20:04;101878.16;;;8.05;86.14
29163;BME280;20331;53.144;8.208;2023-02-20T05:30:25;101859.25;;;8.03;86.48
29163;BME280;20331;53.144;8.208;2023-02-20T05:40:47;101856.66;;;8.04;86.44
29163;BME280;20331;53.144;8.208;2023-02-20T05:51:08;101877.28;;;8.09;86.61
29163;BME280;20331;53.144;8.208;2023-02-20T06:01:39;101872.09;;;8.13;86.45
29163;BME280;20331;53.144;8.208;2023-02-20T06:12:00;101861.78;;;8.13;85.96
29163;BME280;20331;53.144;8.208;2023-02-20T06:22:21;101842.03;;;8.14;86.56
29163;BME280;20331;53.144;8.208;2023-02-20T06:32:43;101859.19;;;8.15;86.88
29163;BME280;20331;53.144;8.208;2023-02-20T06:43:04;101829.97;;;8.21;87.79
29163;BME280;20331;53.144;8.208;2023-02-20T06:53:25;101825.66;;;8.21;87.63
29163;BME280;20331;53.144;8.208;2023-02-20T07:03:47;101835.13;;;8.33;88.16
29163;BME280;20331;53.144;8.208;2023-02-20T07:14:13;101823.91;;;8.34;88.31
29163;BME280;20331;53.144;8.208;2023-02-20T07:24:34;101856.53;;;8.41;88.74
29163;BME280;20331;53.144;8.208;2023-02-20T07:34:57;101845.34;;;8.51;88.95
29163;BME280;20331;53.144;8.208;2023-02-20T07:45:27;101857.31;;;8.64;88.47
29163;BME280;20331;53.144;8.208;2023-02-20T07:55:48;101843.50;;;8.69;88.88
29163;BME280;20331;53.144;8.208;2023-02-20T08:06:09;101822.81;;;8.75;88.33
29163;BME280;20331;53.144;8.208;2023-02-20T08:16:31;101835.69;;;8.84;88.95
29163;BME280;20331;53.144;8.208;2023-02-20T08:26:54;101821.00;;;8.91;89.08
29163;BME280;20331;53.144;8.208;2023-02-20T08:37:17;101834.69;;;8.97;89.39
29163;BME280;20331;53.144;8.208;2023-02-20T08:47:39;101814.03;;;9.00;89.72
29163;BME280;20331;53.144;8.208;2023-02-20T08:58:00;101798.41;;;9.17;88.97
29163;BME280;20331;53.144;8.208;2023-02-20T09:08:23;101808.69;;;9.25;88.79
29163;BME280;20331;53.144;8.208;2023-02-20T09:18:45;101806.88;;;9.36;89.04
29163;BME280;20331;53.144;8.208;2023-02-20T09:29:06;101818.81;;;9.46;88.90
29163;BME280;20331;53.144;8.208;2023-02-20T09:39:28;101815.38;;;9.47;89.09
29163;BME280;20331;53.144;8.208;2023-02-20T09:49:49;101823.88;;;9.55;89.19
29163;BME280;20331;53.144;8.208;2023-02-20T10:10:33;101811.56;;;9.78;88.07
29163;BME280;20331;53.144;8.208;2023-02-20T10:21:04;101805.53;;;9.79;88.47
29163;BME280;20331;53.144;8.208;2023-02-20T10:31:39;101812.34;;;9.86;88.50
29163;BME280;20331;53.144;8.208;2023-02-20T10:52:23;101813.13;;;9.94;88.53
29163;BME280;20331;53.144;8.208;2023-02-20T11:02:56;101821.78;;;9.90;88.95
29163;BME280;20331;53.144;8.208;2023-02-20T11:13:21;101800.94;;;10.05;88.42
29163;BME280;20331;53.144;8.208;2023-02-20T11:23:43;101810.47;;;10.01;88.21
29163;BME280;20331;53.144;8.208;2023-02-20T11:34:05;101803.53;;;10.05;88.65
29163;BME280;20331;53.144;8.208;2023-02-20T11:44:34;101804.19;;;10.22;87.97
29163;BME280;20331;53.144;8.208;2023-02-20T11:55:18;101803.34;;;10.20;88.23
29163;BME280;20331;53.144;8.208;2023-02-20T12:05:46;101781.72;;;10.26;87.47
29163;BME280;20331;53.144;8.208;2023-02-20T12:26:41;101762.59;;;10.37;86.76
29163;BME280;20331;53.144;8.208;2023-02-20T12:47:29;101744.44;;;10.42;86.85
29163;BME280;20331;53.144;8.208;2023-02-20T13:08:40;101729.75;;;10.41;87.75
29163;BME280;20331;53.144;8.208;2023-02-20T13:19:24;101729.78;;;10.39;88.38
29163;BME280;20331;53.144;8.208;2023-02-20T13:50:48;101705.34;;;10.57;88.15
29163;BME280;20331;53.144;8.208;2023-02-20T14:01:10;101706.19;;;10.59;87.75
29163;BME280;20331;53.144;8.208;2023-02-20T14:11:33;101706.97;;;10.65;87.54
29163;BME280;20331;53.144;8.208;2023-02-20T14:21:55;101702.53;;;10.72;87.94
29163;BME280;20331;53.144;8.208;2023-02-20T14:32:17;101696.41;;;10.77;87.93
29163;BME280;20331;53.144;8.208;2023-02-20T14:42:40;101710.09;;;10.82;87.33
29163;BME280;20331;53.144;8.208;2023-02-20T15:03:26;101716.78;;;10.95;87.51
29163;BME280;20331;53.144;8.208;2023-02-20T15:13:51;101711.53;;;11.00;86.72
29163;BME280;20331;53.144;8.208;2023-02-20T15:24:25;101690.91;;;10.95;87.38
29163;BME280;20331;53.144;8.208;2023-02-20T15:34:48;101693.34;;;11.03;86.93
29163;BME280;20331;53.144;8.208;2023-02-20T15:45:11;101688.78;;;11.15;85.98
29163;BME280;20331;53.144;8.208;2023-02-20T15:55:33;101692.44;;;11.05;86.74
29163;BME280;20331;53.144;8.208;2023-02-20T16:05:55;101691.56;;;11.06;86.75
29163;BME280;20331;53.144;8.208;2023-02-20T16:16:34;101683.06;;;11.00;88.55
29163;BME280;20331;53.144;8.208;2023-02-20T16:26:56;101688.31;;;10.95;88.92
29163;BME280;20331;53.144;8.208;2023-02-20T16:37:17;101692.63;;;10.96;89.05
29163;BME280;20331;53.144;8.208;2023-02-20T16:47:39;101691.78;;;10.94;89.21
29163;BME280;20331;53.144;8.208;2023-02-20T16:58:01;101688.50;;;10.85;90.96
29163;BME280;20331;53.144;8.208;2023-02-20T17:08:22;101687.75;;;10.78;91.89
29163;BME280;20331;53.144;8.208;2023-02-20T17:18:44;101696.56;;;10.67;93.26
29163;BME280;20331;53.144;8.208;2023-02-20T17:29:05;101711.44;;;10.54;95.04
29163;BME280;20331;53.144;8.208;2023-02-20T17:39:27;101723.66;;;10.45;96.05
29163;BME280;20331;53.144;8.208;2023-02-20T17:49:49;101705.56;;;10.45;95.85
29163;BME280;20331;53.144;8.208;2023-02-20T18:00:10;101727.13;;;10.45;95.11
29163;BME280;20331;53.144;8.208;2023-02-20T18:10:32;101710.75;;;10.43;96.02
29163;BME280;20331;53.144;8.208;2023-02-20T18:20:53;101705.53;;;10.46;95.04
29163;BME280;20331;53.144;8.208;2023-02-20T18:31:15;101716.81;;;10.44;94.93
29163;BME280;20331;53.144;8.208;2023-02-20T18:41:40;101711.63;;;10.44;94.71
29163;BME280;20331;53.144;8.208;2023-02-20T18:52:01;101728.13;;;10.35;95.35
29163;BME280;20331;53.144;8.208;2023-02-20T19:02:24;101721.13;;;10.40;94.65
29163;BME280;20331;53.144;8.208;2023-02-20T19:12:46;101728.22;;;10.31;95.38
29163;BME280;20331;53.144;8.208;2023-02-20T19:23:08;101715.22;;;10.34;94.94
29163;BME280;20331;53.144;8.208;2023-02-20T19:33:29;101706.69;;;10.27;95.77
29163;BME280;20331;53.144;8.208;2023-02-20T19:43:50;101711.81;;;10.30;95.12
29163;BME280;20331;53.144;8.208;2023-02-20T19:54:15;101707.63;;;10.23;95.53
29163;BME280;20331;53.144;8.208;2023-02-20T20:04:37;101705.06;;;10.20;96.57
29163;BME280;20331;53.144;8.208;2023-02-20T20:14:58;101695.47;;;10.28;95.85
29163;BME280;20331;53.144;8.208;2023-02-20T20:25:21;101686.78;;;10.32;95.11
29163;BME280;20331;53.144;8.208;2023-02-20T20:35:42;101695.25;;;10.40;95.03
29163;BME280;20331;53.144;8.208;2023-02-20T20:46:04;101700.44;;;10.40;94.49
29163;BME280;20331;53.144;8.208;2023-02-20T20:56:25;101683.06;;;10.48;93.78
29163;BME280;20331;53.144;8.208;2023-02-20T21:06:46;101672.66;;;10.53;93.81
29163;BME280;20331;53.144;8.208;2023-02-20T21:17:09;101684.53;;;10.64;92.15
29163;BME280;20331;53.144;8.208;2023-02-20T21:27:30;101680.94;;;10.74;91.84
29163;BME280;20331;53.144;8.208;2023-02-20T21:37:52;101664.50;;;10.75;91.34
29163;BME280;20331;53.144;8.208;2023-02-20T21:48:14;101671.25;;;10.85;90.72
29163;BME280;20331;53.144;8.208;2023-02-20T21:58:35;101675.53;;;10.86;90.81
29163;BME280;20331;53.144;8.208;2023-02-20T22:09:15;101672.00;;;10.90;90.69
29163;BME280;20331;53.144;8.208;2023-02-20T22:19:56;101691.03;;;10.89;91.50
29163;BME280;20331;53.144;8.208;2023-02-20T22:30:36;101676.50;;;10.79;92.37
29163;BME280;20331;53.144;8.208;2023-02-20T22:41:17;101688.81;;;10.67;93.63
29163;BME280;20331;53.144;8.208;2023-02-20T22:51:57;101685.44;;;10.60;94.60
29163;BME280;20331;53.144;8.208;2023-02-20T23:02:37;101676.84;;;10.60;94.51
29163;BME280;20331;53.144;8.208;2023-02-20T23:13:17;101682.94;;;10.57;95.49
29163;BME280;20331;53.144;8.208;2023-02-20T23:23:57;101678.84;;;10.43;97.09
29163;BME280;20331;53.144;8.208;2023-02-20T23:34:37;101670.31;;;10.38;96.86
29163;BME280;20331;53.144;8.208;2023-02-20T23:45:17;101679.75;;;10.40;96.28
29163;BME280;20331;53.144;8.208;2023-02-20T23:55:57;101685.66;;;10.48;95.33
